Trans Sea — 9HA2564 — position and weather

sailwx.info

Track history (hours):
 
Tides and Currents Weather Stations Pressure Air Temp Water Temp Dewpoint Dewpoint Depression Visibility Wind Speed Wind Dir Waves Ship Positions

Trans Sea

Last reported at 2016-Dec-06 02:16 UTC. Time now 2016-Dec-07 08:41 UTC.
Position N 36°38' E 014°36'.

Length 107 m; draft 6.9 m.

Type: Ship (hazmat cat C). MMSI: 248887000.

Date/timePositionNaut miles runAvg speedWind from/ knotsBaromVisibWave heightAir tempDewpointWater temp
2016-Dec-06 02:16N 36°38' E 014°36'912.2
2016-Dec-06 01:33N 36°40' E 014°26'1212.1
2016-Dec-06 00:33N 36°46' E 014°12'1211.9
2016-Dec-05 23:33N 36°51' E 013°59'1212.0
2016-Dec-05 22:33N 36°57' E 013°46'26011.7
2016-Dec-05 00:25N 38°40' E 008°44'32311.6
2016-Dec-03 20:31N 43°15' E 004°60'1010.3
2016-Dec-03 19:33N 43°24' E 004°54'3 0.1
2016-Dec-02 07:22N 43°25' E 004°50'4 5.0
2016-Dec-02 06:33N 43°24' E 004°55'2110.3
2016-Dec-02 04:33N 43°03' E 004°54'  
2016-Nov-28 14:14N 43°08' E 004°56'812.3
2016-Nov-28 13:33N 43°16' E 004°60'12 0.2
2016-Nov-26 14:32N 43°25' E 004°50'5 4.4
2016-Nov-26 13:31N 43°25' E 004°56'0 0.0
2016-Nov-26 12:31N 43°25' E 004°56'0 0.0
2016-Nov-26 11:28N 43°25' E 004°56'0 0.0
2016-Nov-26 10:31N 43°25' E 004°56'0 0.0
2016-Nov-26 09:31N 43°25' E 004°56'0 0.0
2016-Nov-26 08:28N 43°25' E 004°56'0 0.1
2016-Nov-26 07:28N 43°25' E 004°56'0 0.0
2016-Nov-26 06:31N 43°25' E 004°56'0 0.0
2016-Nov-26 05:31N 43°25' E 004°56'0 0.0
2016-Nov-26 04:31N 43°25' E 004°56'0 0.0
2016-Nov-26 03:31N 43°25' E 004°56'0 0.0
2016-Nov-26 02:31N 43°25' E 004°56'  
Track history (hours):
 
Tides and Currents Weather Stations Pressure Air Temp Water Temp Dewpoint Dewpoint Depression Visibility Wind Speed Wind Dir Waves Ship Positions

Trans Sea

Last reported at 2016-Dec-06 02:16 UTC. Time now 2016-Dec-07 08:41 UTC.
Position N 36°38' E 014°36'.

Length 107 m; draft 6.9 m.

Type: Ship (hazmat cat C). MMSI: 248887000.

Date/timePositionNaut miles runAvg speedWind from/ knotsBaromVisibWave heightAir tempDewpointWater temp
2016-Dec-06 02:16N 36°38' E 014°36'912.2
2016-Dec-06 01:33N 36°40' E 014°26'1212.1
2016-Dec-06 00:33N 36°46' E 014°12'1211.9
2016-Dec-05 23:33N 36°51' E 013°59'1212.0
2016-Dec-05 22:33N 36°57' E 013°46'26011.7
2016-Dec-05 00:25N 38°40' E 008°44'32311.6
2016-Dec-03 20:31N 43°15' E 004°60'1010.3
2016-Dec-03 19:33N 43°24' E 004°54'3 0.1
2016-Dec-02 07:22N 43°25' E 004°50'4 5.0
2016-Dec-02 06:33N 43°24' E 004°55'2110.3
2016-Dec-02 04:33N 43°03' E 004°54'  
2016-Nov-28 14:14N 43°08' E 004°56'812.3
2016-Nov-28 13:33N 43°16' E 004°60'12 0.2
2016-Nov-26 14:32N 43°25' E 004°50'5 4.4
2016-Nov-26 13:31N 43°25' E 004°56'0 0.0
2016-Nov-26 12:31N 43°25' E 004°56'0 0.0
2016-Nov-26 11:28N 43°25' E 004°56'0 0.0
2016-Nov-26 10:31N 43°25' E 004°56'0 0.0
2016-Nov-26 09:31N 43°25' E 004°56'0 0.0
2016-Nov-26 08:28N 43°25' E 004°56'0 0.1
2016-Nov-26 07:28N 43°25' E 004°56'0 0.0
2016-Nov-26 06:31N 43°25' E 004°56'0 0.0
2016-Nov-26 05:31N 43°25' E 004°56'0 0.0
2016-Nov-26 04:31N 43°25' E 004°56'0 0.0
2016-Nov-26 03:31N 43°25' E 004°56'0 0.0
2016-Nov-26 02:31N 43°25' E 004°56'  

Dump ship's entire track history